Time;durP1;ratioP1;P1;durP2;ratioP2;P2;SDS_P1;SDS_P2;PMS_P1;PMS_P2;Temp;Humidity;BMP_temperature;BMP_pressure;BME280_temperature;BME280_humidity;BME280_pressure;Samples;Min_cycle;Max_cycle;Signal;HPM_P1;HPM_P2
2022/10/16 00:04:21;;;;;;;24.40;22.20;;;;;;;13.65;71.17;100369.98;106156;1304;21990;-81
2022/10/16 00:07:58;;;;;;;23.00;20.80;;;;;;;13.72;71.01;100368.98;106137;1298;22756;-82
2022/10/16 00:11:31;;;;;;;;;;;;;;;;;;;;;
2022/10/16 00:14:41;;;;;;;19.00;17.00;;;;;;;13.74;70.75;100361.68;105805;1310;22002;-81
2022/10/16 00:17:43;;;;;;;18.40;15.80;;;;;;;13.74;70.94;100360.83;105581;1310;21986;-82
2022/10/16 00:21:11;;;;;;;;;;;;;;;;;;;;;
2022/10/16 00:24:06;;;;;;;20.50;16.40;;;;;;;13.72;70.97;100364.98;106311;1301;21982;-82
2022/10/16 00:27:33;;;;;;;;;;;;;;;;;;;;;
2022/10/16 00:30:31;;;;;;;;;;;;;;;;;;;;;
2022/10/16 00:33:08;;;;;;;16.60;15.00;;;;;;;13.86;70.59;100359.50;108363;1285;22648;-81
2022/10/16 00:36:31;;;;;;;15.90;14.30;;;;;;;13.82;70.65;100356.57;108350;1284;23604;-81
2022/10/16 00:39:54;;;;;;;15.30;13.70;;;;;;;13.79;70.83;100364.77;107469;1283;1081529;-81
2022/10/16 00:43:11;;;;;;;15.20;13.60;;;;;;;13.79;70.80;100368.98;108381;1281;23595;-81
2022/10/16 00:46:47;;;;;;;14.70;13.20;;;;;;;13.78;70.94;100367.64;108436;1284;22433;-81
2022/10/16 00:49:35;;;;;;;;;;;;;;;;;;;;;
2022/10/16 00:52:43;;;;;;;;;;;;;;;;;;;;;
2022/10/16 00:55:58;;;;;;;12.20;11.00;;;;;;;13.87;70.88;100358.09;108443;1283;22001;-81
2022/10/16 00:58:43;;;;;;;12.70;11.40;;;;;;;13.88;70.77;100357.66;108078;1289;21955;-82
2022/10/16 01:01:36;;;;;;;;;;;;;;;;;;;;;
2022/10/16 01:04:37;;;;;;;11.10;9.70;;;;;;;13.93;70.80;100356.72;108149;1286;21941;-81
2022/10/16 01:07:41;;;;;;;11.60;10.50;;;;;;;13.95;70.69;100354.71;108059;1286;21906;-81
2022/10/16 01:10:48;;;;;;;10.10;9.20;;;;;;;13.94;70.68;100354.71;108300;1285;21962;-81
2022/10/16 01:13:39;;;;;;;9.50;8.70;;;;;;;13.93;70.55;100356.35;108381;1283;21936;-82
2022/10/16 01:16:51;;;;;;;;;;;;;;;;;;;;;
2022/10/16 01:20:47;;;;;;;10.40;9.40;;;;;;;13.88;70.73;100363.08;108898;1274;21926;-81
2022/10/16 01:24:32;;;;;;;10.00;9.00;;;;;;;13.86;70.84;100364.90;108436;1280;21932;-81
2022/10/16 01:27:57;;;;;;;11.40;10.10;;;;;;;13.86;70.70;100365.96;108003;1286;23523;-81
2022/10/16 01:30:50;;;;;;;9.20;8.30;;;;;;;13.84;70.71;100365.02;107489;1292;21952;-82
2022/10/16 01:33:56;;;;;;;10.60;9.60;;;;;;;13.88;70.68;100370.93;107561;1292;23604;-83
2022/10/16 01:37:21;;;;;;;9.00;8.20;;;;;;;13.86;70.67;100371.38;107087;1297;22019;-81
2022/10/16 01:39:55;;;;;;;9.20;8.20;;;;;;;13.87;70.70;100374.16;106455;1301;21968;-80
2022/10/16 01:42:58;;;;;;;;;;;;;;;;;;;;;
2022/10/16 01:45:33;;;;;;;10.30;9.20;;;;;;;13.93;70.71;100392.05;107056;1292;23142;-81
2022/10/16 01:48:07;;;;;;;9.80;8.80;;;;;;;13.94;70.66;100384.30;107362;1292;22106;-82
2022/10/16 01:50:50;;;;;;;9.10;8.30;;;;;;;13.96;70.67;100384.35;107898;1289;21952;-82
2022/10/16 01:53:38;;;;;;;10.40;9.40;;;;;;;13.98;70.73;100386.89;107734;1288;22027;-82
2022/10/16 01:56:22;;;;;;;11.50;8.60;;;;;;;13.98;70.71;100392.13;108284;1283;23758;-82
2022/10/16 01:59:21;;;;;;;10.50;8.90;;;;;;;13.99;70.54;100395.78;108151;1283;21935;-81
2022/10/16 02:02:08;;;;;;;10.30;9.30;;;;;;;13.98;70.48;100394.57;108345;1283;21939;-80
2022/10/16 02:04:57;;;;;;;9.50;8.70;;;;;;;13.96;70.45;100395.05;108382;1282;23056;-81
2022/10/16 02:08:16;;;;;;;;;;;;;;;;;;;;;
2022/10/16 02:11:07;;;;;;;14.40;10.30;;;;;;;13.86;70.76;100397.48;108563;1270;21951;-83
2022/10/16 02:14:28;;;;;;;9.20;8.30;;;;;;;13.86;70.67;100403.41;108664;1277;21938;-81
2022/10/16 02:17:18;;;;;;;9.30;8.10;;;;;;;13.84;70.87;100403.88;108805;1275;23709;-82
2022/10/16 02:20:03;;;;;;;8.60;7.50;;;;;;;13.84;70.92;100391.81;108729;1277;22311;-82
2022/10/16 02:23:01;;;;;;;10.40;9.30;;;;;;;13.80;70.94;100391.98;108672;1279;24299;-82
2022/10/16 02:25:41;;;;;;;10.90;8.10;;;;;;;13.81;71.02;100398.41;108745;1275;24402;-81
2022/10/16 02:28:27;;;;;;;11.00;7.70;;;;;;;13.85;71.09;100399.59;108507;1274;21945;-81
2022/10/16 02:31:51;;;;;;;8.00;7.30;;;;;;;13.87;71.07;100405.80;108776;1274;22007;-81
2022/10/16 02:34:33;;;;;;;10.20;8.10;;;;;;;13.92;71.13;100403.44;108543;1277;21950;-81
2022/10/16 02:37:10;;;;;;;10.60;8.90;;;;;;;13.95;70.98;100395.09;108531;1283;23096;-80
2022/10/16 02:40:15;;;;;;;10.80;7.60;;;;;;;13.96;70.90;100399.41;108546;1283;22723;-81
2022/10/16 02:43:09;;;;;;;;;;;;;;;13.96;70.81;100404.33;108564;1280;23572;-82
2022/10/16 02:45:44;;;;;;;10.70;9.00;;;;;;;13.88;71.11;100409.94;108595;1280;23153;-82
2022/10/16 02:48:18;;;;;;;8.30;7.60;;;;;;;13.92;71.06;100405.56;108381;1281;23107;-80
2022/10/16 02:51:01;;;;;;;;;;;;;;;;;;;;;
2022/10/16 02:53:50;;;;;;;8.80;7.50;;;;;;;13.96;70.83;100404.50;108606;1280;21966;-82
2022/10/16 02:56:50;;;;;;;7.80;7.10;;;;;;;13.97;70.96;100418.94;108523;1281;21935;-81
2022/10/16 02:59:37;;;;;;;7.80;7.10;;;;;;;13.98;70.79;100422.74;108040;1286;21959;-81
2022/10/16 03:02:21;;;;;;;8.10;7.30;;;;;;;13.98;70.92;100423.27;108054;1287;21954;-82
2022/10/16 03:06:01;;;;;;;8.90;6.70;;;;;;;13.98;70.93;100426.05;108821;1286;21792;-82
2022/10/16 03:09:15;;;;;;;;;;;;;;;;;;;;;
2022/10/16 03:12:13;;;;;;;;;;;;;;;;;;;;;
2022/10/16 03:15:07;;;;;;;8.10;7.40;;;;;;;14.06;71.14;100432.49;107887;1292;22618;-82
2022/10/16 03:17:48;;;;;;;8.00;6.80;;;;;;;14.13;70.98;100430.20;107962;1292;21970;-82
2022/10/16 03:20:25;;;;;;;;;;;;;;;14.17;70.85;100425.80;107749;1290;21935;-82
2022/10/16 03:23:25;;;;;;;;;;;;;;;;;;;;;
2022/10/16 03:26:30;;;;;;;;;;;;;;;;;;;;;
2022/10/16 03:29:44;;;;;;;12.70;6.80;;;;;;;14.09;70.90;100427.30;108445;1283;23628;-82
2022/10/16 03:32:28;;;;;;;8.40;7.20;;;;;;;14.11;70.86;100422.10;108191;1286;21943;-83
2022/10/16 03:35:12;;;;;;;;;;;;;;;;;;;;;
2022/10/16 03:38:11;;;;;;;8.80;7.50;;;;;;;14.10;70.86;100410.61;108829;1278;22345;-81
2022/10/16 03:41:13;;;;;;;;;;;;;;;;;;;;;
2022/10/16 03:44:13;;;;;;;8.50;7.70;;;;;;;14.08;70.97;100418.05;108244;1284;23077;-80
2022/10/16 03:46:53;;;;;;;8.10;7.40;;;;;;;14.09;70.89;100426.55;108298;1285;22821;-80
2022/10/16 03:49:34;;;;;;;8.90;8.00;;;;;;;14.10;70.91;100426.15;108300;1284;24351;-81
2022/10/16 03:52:25;;;;;;;10.60;8.50;;;;;;;14.10;70.91;100431.60;108485;1283;22281;-81
2022/10/16 03:55:01;;;;;;;9.10;7.70;;;;;;;14.11;70.99;100440.09;108463;1284;21962;-83
2022/10/16 03:57:55;;;;;;;;;;;;;;;;;;;;;
2022/10/16 04:00:56;;;;;;;8.60;7.70;;;;;;;14.17;70.94;100437.02;108419;1284;22013;-82
2022/10/16 04:04:10;;;;;;;9.40;8.50;;;;;;;14.15;70.82;100440.98;108540;1281;22391;-82
2022/10/16 04:07:10;;;;;;;8.60;7.80;;;;;;;14.15;70.82;100441.31;108572;1283;21959;-82
2022/10/16 04:10:05;;;;;;;;;;;;;;;14.13;70.87;100447.36;108474;1284;21941;-81
2022/10/16 04:12:51;;;;;;;9.00;8.10;;;;;;;14.05;71.13;100448.45;108481;1284;22082;-81
2022/10/16 04:15:49;;;;;;;9.10;8.20;;;;;;;14.07;71.13;100452.05;108473;1283;23422;-82
2022/10/16 04:18:38;;;;;;;9.40;8.50;;;;;;;14.09;71.05;100455.26;108531;1279;24287;-82
2022/10/16 04:21:35;;;;;;;10.40;9.30;;;;;;;14.12;71.07;100461.96;108745;1278;22066;-81
2022/10/16 04:24:16;;;;;;;13.10;10.70;;;;;;;14.13;71.03;100464.86;108574;1280;21925;-82
2022/10/16 04:27:12;;;;;;;11.50;10.00;;;;;;;14.14;71.11;100460.77;108532;1279;21913;-81
2022/10/16 04:30:23;;;;;;;17.10;12.40;;;;;;;14.16;71.10;100460.84;108832;1278;22784;-81
2022/10/16 04:32:58;;;;;;;15.10;12.60;;;;;;;14.17;70.87;100464.66;108732;1268;23595;-81
2022/10/16 04:35:33;;;;;;;13.20;11.80;;;;;;;14.18;70.92;100462.17;108671;1279;21924;-81
2022/10/16 04:38:12;;;;;;;14.40;12.20;;;;;;;14.19;70.86;100464.55;108574;1279;21990;-81
2022/10/16 04:40:59;;;;;;;18.50;14.20;;;;;;;14.18;70.83;100464.06;108555;1281;21953;-80
2022/10/16 04:43:36;;;;;;;14.10;12.50;;;;;;;14.17;70.87;100463.81;108346;1281;22385;-81
2022/10/16 04:46:19;;;;;;;;;;;;;;;;;;;;;
2022/10/16 04:49:00;;;;;;;18.70;16.00;;;;;;;14.13;70.89;100464.69;108468;1283;22257;-81
2022/10/16 04:52:14;;;;;;;;;;;;;;;;;;;;;
2022/10/16 04:55:00;;;;;;;;;;;;;;;;;;;;;
2022/10/16 04:57:33;;;;;;;17.60;15.80;;;;;;;14.14;71.08;100475.66;108360;1283;24316;-80
2022/10/16 05:00:12;;;;;;;19.40;15.00;;;;;;;14.17;71.08;100476.56;108631;1280;21938;-81
2022/10/16 05:02:48;;;;;;;18.10;16.00;;;;;;;14.16;70.98;100478.00;108746;1275;23701;-80
2022/10/16 05:05:24;;;;;;;21.20;18.30;;;;;;;14.17;70.99;100481.45;108680;1275;21969;-80
2022/10/16 05:08:03;;;;;;;19.80;17.80;;;;;;;14.17;70.92;100481.81;108775;1277;23058;-82
2022/10/16 05:10:40;;;;;;;19.30;17.30;;;;;;;14.17;70.96;100478.46;108819;1275;23583;-81
2022/10/16 05:13:23;;;;;;;20.50;18.40;;;;;;;14.15;70.97;100476.83;108838;1275;23090;-82
2022/10/16 05:16:23;;;;;;;;;;;;;;;;;;;;;
2022/10/16 05:18:53;;;;;;;34.40;27.10;;;;;;;14.15;71.03;100480.48;108916;1275;23016;-81
2022/10/16 05:21:59;;;;;;;22.00;19.70;;;;;;;14.14;71.05;100484.58;108746;1279;21962;-81
2022/10/16 05:24:54;;;;;;;20.00;17.90;;;;;;;14.13;71.17;100482.86;108740;1276;23659;-81
2022/10/16 05:27:31;;;;;;;21.50;18.30;;;;;;;14.19;71.07;100487.14;108835;1276;22019;-81
2022/10/16 05:30:53;;;;;;;25.10;19.70;;;;;;;14.16;71.09;100483.75;108914;1274;22032;-82
2022/10/16 05:33:59;;;;;;;25.90;19.70;;;;;;;14.15;71.20;100487.67;109019;1274;21952;-81
2022/10/16 05:36:37;;;;;;;25.00;20.30;;;;;;;14.19;71.23;100494.67;108810;1275;21942;-81
2022/10/16 05:39:13;;;;;;;20.70;18.30;;;;;;;14.23;71.24;100500.59;108846;1276;21958;-81
2022/10/16 05:41:44;;;;;;;25.60;19.50;;;;;;;14.27;71.21;100506.16;108870;1272;23898;-82
2022/10/16 05:44:30;;;;;;;22.60;19.80;;;;;;;14.30;71.09;100509.14;108712;1278;22322;-82
2022/10/16 05:47:17;;;;;;;24.50;20.40;;;;;;;14.29;70.97;100513.40;108731;1275;23624;-80
2022/10/16 05:49:58;;;;;;;23.50;19.90;;;;;;;14.29;70.92;100517.98;108703;1276;21941;-80
2022/10/16 05:52:41;;;;;;;23.00;20.10;;;;;;;14.28;71.02;100520.49;108892;1275;21927;-80
2022/10/16 05:55:20;;;;;;;23.40;20.90;;;;;;;14.30;71.08;100519.86;108840;1275;21963;-81
2022/10/16 05:58:35;;;;;;;20.10;18.00;;;;;;;14.27;71.03;100523.15;108859;1278;21905;-80
2022/10/16 06:01:36;;;;;;;23.50;20.70;;;;;;;14.27;71.09;100522.06;109147;1274;21947;-80
2022/10/16 06:04:31;;;;;;;24.30;20.40;;;;;;;14.27;71.18;100522.95;109146;1275;21993;-81
2022/10/16 06:07:06;;;;;;;24.10;21.50;;;;;;;14.31;71.15;100519.43;108659;1281;21930;-81
2022/10/16 06:09:52;;;;;;;25.10;21.20;;;;;;;14.32;71.20;100515.52;108781;1282;21938;-81
2022/10/16 06:12:36;;;;;;;25.60;22.90;;;;;;;14.34;71.23;100514.92;108570;1278;21998;-81
2022/10/16 06:15:15;;;;;;;23.20;20.50;;;;;;;14.34;71.27;100514.39;108690;1280;23606;-81
2022/10/16 06:17:44;;;;;;;34.40;31.00;;;;;;;14.39;71.39;100516.91;108778;1278;24387;-81
2022/10/16 06:20:14;;;;;;;55.20;49.90;;;;;;;14.46;71.46;100522.34;108794;1282;21943;-81
2022/10/16 06:22:46;;;;;;;43.10;38.60;;;;;;;14.52;71.41;100526.24;108809;1281;22099;-80
2022/10/16 06:25:33;;;;;;;31.50;28.20;;;;;;;14.63;71.65;100526.77;109016;1274;23010;-79
2022/10/16 06:28:12;;;;;;;27.80;24.50;;;;;;;14.75;71.70;100530.71;109274;1274;21922;-79
2022/10/16 06:30:48;;;;;;;26.90;24.20;;;;;;;14.85;71.41;100537.03;108911;1276;23579;-80
2022/10/16 06:33:48;;;;;;;;;;;;;;;;;;;;;
2022/10/16 06:36:34;;;;;;;29.30;26.50;;;;;;;14.91;70.80;100548.92;108988;1275;23615;-81
2022/10/16 06:43:52;;;;;;;25.30;22.90;;;;;;;15.03;70.67;100543.79;108899;1276;23700;-82
2022/10/16 06:46:29;;;;;;;24.40;22.00;;;;;;;15.10;70.60;100551.77;108688;1275;22550;-81
2022/10/16 06:49:07;;;;;;;25.20;22.80;;;;;;;15.22;70.55;100555.20;108515;1277;22035;-81
2022/10/16 06:51:57;;;;;;;26.40;24.00;;;;;;;15.27;70.19;100554.59;108997;1274;23059;-80
2022/10/16 06:54:50;;;;;;;26.10;23.30;;;;;;;15.29;69.99;100560.75;108712;1276;23698;-81
2022/10/16 06:57:29;;;;;;;26.20;23.70;;;;;;;15.27;69.55;100562.14;108757;1278;22284;-82
2022/10/16 07:00:46;;;;;;;28.50;25.30;;;;;;;15.21;69.70;100565.21;108834;1276;23596;-82
2022/10/16 07:03:26;;;;;;;32.30;29.10;;;;;;;15.26;69.80;100570.90;108711;1275;23085;-82
2022/10/16 07:06:23;;;;;;;;;;;;;;;;;;;;;
2022/10/16 07:09:19;;;;;;;30.30;25.30;;;;;;;15.35;69.75;100571.14;108844;1274;21928;-81
2022/10/16 07:12:06;;;;;;;29.80;27.00;;;;;;;15.41;69.84;100576.59;108835;1274;21969;-84
2022/10/16 07:15:41;;;;;;;28.20;25.30;;;;;;;15.41;69.66;100578.00;108909;1274;21980;-83
2022/10/16 07:18:57;;;;;;;25.60;23.10;;;;;;;15.46;69.78;100584.22;108590;1282;22366;-83
2022/10/16 07:21:47;;;;;;;27.30;24.50;;;;;;;15.55;69.69;100588.11;108451;1280;21963;-81
2022/10/16 07:24:26;;;;;;;24.30;21.90;;;;;;;15.61;69.49;100590.08;108555;1276;22039;-81
2022/10/16 07:27:03;;;;;;;24.30;21.70;;;;;;;15.65;69.41;100595.65;108270;1280;22733;-81
2022/10/16 07:29:50;;;;;;;;;;;;;;;;;;;;;
2022/10/16 07:33:04;;;;;;;;;;;;;;;;;;;;;
2022/10/16 07:36:05;;;;;;;;;;;;;;;;;;;;;
2022/10/16 07:38:50;;;;;;;24.40;21.80;;;;;;;15.87;69.10;100603.05;108759;1274;21952;-80
2022/10/16 07:41:41;;;;;;;23.60;21.40;;;;;;;15.96;69.05;100612.70;108730;1275;21927;-82
2022/10/16 07:44:19;;;;;;;27.60;24.70;;;;;;;16.05;69.01;100611.90;108826;1273;22030;-81
2022/10/16 07:47:01;;;;;;;25.50;22.20;;;;;;;16.11;68.82;100610.30;108800;1275;21979;-81
2022/10/16 07:50:05;;;;;;;22.60;20.30;;;;;;;16.19;69.01;100617.05;108810;1274;23676;-81
2022/10/16 07:52:53;;;;;;;22.20;19.90;;;;;;;16.34;69.12;100620.06;108757;1274;23578;-81
2022/10/16 07:55:37;;;;;;;;;;;;;;;;;;;;;
2022/10/16 07:58:40;;;;;;;;;;;;;;;;;;;;;
2022/10/16 08:01:42;;;;;;;18.40;16.70;;;;;;;16.88;68.37;100622.55;108806;1275;21930;-81
2022/10/16 08:05:08;;;;;;;;;;;;;;;;;;;;;
2022/10/16 08:08:23;;;;;;;17.00;15.10;;;;;;;17.23;67.91;100611.10;108765;1274;22700;-81
2022/10/16 08:11:31;;;;;;;;;;;;;;;;;;;;;
2022/10/16 08:14:51;;;;;;;15.40;10.90;;;;;;;17.83;67.17;100609.00;108449;1280;21991;-81
2022/10/16 08:17:58;;;;;;;11.30;10.30;;;;;;;18.14;66.15;100608.90;108596;1279;23144;-80
2022/10/16 08:21:00;;;;;;;11.70;10.50;;;;;;;18.38;64.73;100610.73;108449;1280;23862;-80
2022/10/16 08:24:15;;;;;;;;;;;;;;;;;;;;;
2022/10/16 08:26:58;;;;;;;9.90;8.90;;;;;;;18.77;63.30;100614.64;108449;1282;21955;-82
2022/10/16 08:29:42;;;;;;;;;;;;;;;18.93;62.73;100616.39;108302;1284;21934;-83
2022/10/16 08:32:32;;;;;;;;;;;;;;;;;;;;;
2022/10/16 08:35:26;;;;;;;10.60;9.50;;;;;;;19.14;62.29;100620.57;108441;1280;23678;-82
2022/10/16 08:38:46;;;;;;;;;;;;;;;;;;;;;
2022/10/16 08:42:02;;;;;;;16.40;9.50;;;;;;;19.43;60.73;100613.82;108121;1280;23109;-82
2022/10/16 08:45:20;;;;;;;8.90;7.90;;;;;;;19.52;60.40;100616.14;108549;1276;21945;-83
2022/10/16 08:48:44;;;;;;;;;;;;;;;;;;;;;
2022/10/16 08:52:00;;;;;;;15.30;12.30;;;;;;;19.39;60.07;100618.51;108664;1279;21978;-84
2022/10/16 08:55:04;;;;;;;12.90;10.60;;;;;;;19.47;60.36;100617.03;108535;1280;23718;-85
2022/10/16 08:58:26;;;;;;;9.40;8.50;;;;;;;19.54;59.61;100617.64;108580;1275;22280;-82
2022/10/16 09:01:18;;;;;;;14.40;9.10;;;;;;;19.58;59.52;100616.81;108446;1280;21935;-81
2022/10/16 09:04:29;;;;;;;9.00;8.10;;;;;;;19.58;59.34;100615.92;108527;1280;22376;-81
2022/10/16 09:08:18;;;;;;;8.30;7.50;;;;;;;19.48;59.26;100610.75;108327;1283;21971;-81
2022/10/16 09:11:46;;;;;;;12.30;8.40;;;;;;;19.52;59.27;100618.11;108214;1283;21968;-81
2022/10/16 09:15:00;;;;;;;9.00;7.20;;;;;;;19.56;59.13;100621.73;108098;1286;21945;-82
2022/10/16 09:17:29;;;;;;;10.40;8.10;;;;;;;19.54;58.84;100629.44;108352;1280;21942;-82
2022/10/16 09:20:26;;;;;;;18.00;8.70;;;;;;;19.60;59.24;100631.13;108167;1283;22383;-82
2022/10/16 09:23:27;;;;;;;13.00;10.60;;;;;;;19.67;59.20;100631.46;107886;1286;23173;-82
2022/10/16 09:25:58;;;;;;;10.00;8.30;;;;;;;19.77;58.81;100631.67;107989;1286;23615;-81
2022/10/16 09:28:32;;;;;;;11.50;8.40;;;;;;;19.90;58.96;100629.76;107945;1284;22114;-82
2022/10/16 09:31:03;;;;;;;9.40;8.30;;;;;;;20.04;59.07;100635.36;108207;1286;21967;-82
2022/10/16 09:33:42;;;;;;;7.40;6.70;;;;;;;20.18;58.64;100638.30;108150;1286;24395;-82
2022/10/16 09:36:22;;;;;;;8.50;7.50;;;;;;;20.26;58.13;100642.24;108257;1286;21937;-81
2022/10/16 09:39:15;;;;;;;7.40;6.70;;;;;;;20.39;58.25;100644.80;108288;1286;23683;-81
2022/10/16 09:41:48;;;;;;;15.10;8.50;;;;;;;20.60;58.11;100643.15;108357;1280;23090;-82
2022/10/16 09:44:31;;;;;;;7.60;6.80;;;;;;;20.83;58.02;100643.00;108676;1275;22316;-81
2022/10/16 09:47:25;;;;;;;7.90;7.10;;;;;;;20.95;57.10;100639.63;108378;1280;22199;-81
2022/10/16 09:50:04;;;;;;;10.90;9.70;;;;;;;21.03;56.58;100641.47;108140;1283;21941;-81
2022/10/16 09:52:36;;;;;;;14.30;12.90;;;;;;;21.03;56.07;100641.81;108133;1278;21988;-82
2022/10/16 09:55:18;;;;;;;9.20;8.20;;;;;;;21.01;55.78;100642.87;108144;1283;22722;-81
2022/10/16 09:57:54;;;;;;;8.50;7.40;;;;;;;21.05;56.40;100641.78;108027;1284;23050;-82
2022/10/16 10:00:38;;;;;;;;;;;;;;;;;;;;;
2022/10/16 10:03:50;;;;;;;6.20;5.60;;;;;;;21.30;55.93;100631.77;108346;1283;21958;-82
2022/10/16 10:06:57;;;;;;;7.50;6.80;;;;;;;21.47;56.02;100633.84;108439;1280;21947;-81
2022/10/16 10:09:40;;;;;;;9.50;8.50;;;;;;;21.74;55.33;100632.88;108898;1275;22221;-81
2022/10/16 10:12:26;;;;;;;6.90;6.30;;;;;;;21.97;55.02;100635.48;108740;1274;22986;-80
2022/10/16 10:15:21;;;;;;;5.70;5.10;;;;;;;22.13;54.55;100634.58;108839;1274;23598;-82
2022/10/16 10:18:03;;;;;;;5.60;5.10;;;;;;;22.17;53.38;100640.10;108761;1274;21944;-81
2022/10/16 10:20:38;;;;;;;;;;;;;;;22.24;53.64;100645.59;108782;1271;21921;-81
2022/10/16 10:23:42;;;;;;;;;;;;;;;;;;;;;
2022/10/16 10:26:36;;;;;;;8.90;6.60;;;;;;;22.18;53.02;100654.01;108887;1274;21930;-81
2022/10/16 10:30:17;;;;;;;5.00;4.60;;;;;;;22.12;52.89;100653.59;108870;1275;21935;-81
2022/10/16 10:33:25;;;;;;;6.60;4.20;;;;;;;22.02;52.96;100646.98;108947;1274;23087;-81
2022/10/16 10:36:47;;;;;;;4.80;4.30;;;;;;;21.87;53.26;100645.17;108999;1275;21999;-82
2022/10/16 10:39:33;;;;;;;7.90;4.60;;;;;;;21.78;53.42;100646.77;108789;1274;21937;-80
2022/10/16 10:42:25;;;;;;;7.50;6.70;;;;;;;21.73;53.55;100645.07;108838;1274;23582;-82
2022/10/16 10:45:32;;;;;;;5.90;5.40;;;;;;;21.71;53.47;100645.40;108905;1274;21932;-82
2022/10/16 10:48:43;;;;;;;5.90;4.10;;;;;;;21.81;53.89;100644.77;108499;1283;21967;-82
2022/10/16 10:51:35;;;;;;;6.30;4.60;;;;;;;22.17;54.33;100648.23;108268;1282;22973;-82
2022/10/16 10:54:20;;;;;;;3.90;3.40;;;;;;;22.56;53.19;100646.60;108373;1281;21952;-80
2022/10/16 10:57:40;;;;;;;3.90;3.50;;;;;;;22.68;51.73;100648.50;108015;1288;22030;-82
2022/10/16 11:00:45;;;;;;;4.90;3.30;;;;;;;22.70;51.68;100652.90;107916;1289;24436;-80
2022/10/16 11:03:46;;;;;;;;;;;;;;;;;;;;;
2022/10/16 11:07:18;;;;;;;3.70;3.20;;;;;;;22.68;51.24;100652.02;107810;1291;23717;-80
2022/10/16 11:10:26;;;;;;;8.20;4.90;;;;;;;22.64;51.47;100660.33;107684;1288;23125;-82
2022/10/16 11:13:27;;;;;;;7.40;4.30;;;;;;;22.62;51.62;100667.56;107654;1291;21952;-81
2022/10/16 11:16:36;;;;;;;5.00;4.50;;;;;;;22.54;51.70;100665.08;108089;1285;22010;-82
2022/10/16 11:19:49;;;;;;;5.10;4.20;;;;;;;22.47;51.90;100665.34;108257;1285;22421;-82
2022/10/16 11:22:38;;;;;;;6.00;5.10;;;;;;;22.41;52.23;100663.46;107987;1285;22737;-82
2022/10/16 11:25:53;;;;;;;6.20;4.60;;;;;;;22.41;52.43;100657.63;108624;1274;23132;-81
2022/10/16 11:29:06;;;;;;;;;;;;;;;;;;;;;
2022/10/16 11:32:27;;;;;;;7.70;4.90;;;;;;;22.28;52.22;100652.48;108662;1277;22999;-82
2022/10/16 11:35:47;;;;;;;4.40;4.00;;;;;;;22.13;52.15;100654.73;108701;1278;22267;-81
2022/10/16 11:38:58;;;;;;;5.40;4.60;;;;;;;22.00;52.54;100652.06;108760;1277;24037;-81
2022/10/16 11:42:13;;;;;;;6.40;4.40;;;;;;;21.86;52.63;100645.26;108752;1277;23714;-81
2022/10/16 11:45:26;;;;;;;6.30;4.50;;;;;;;21.73;52.90;100638.50;108427;1273;22274;-80
2022/10/16 11:48:34;;;;;;;;;;;;;;;;;;;;;
2022/10/16 11:51:34;;;;;;;5.30;4.60;;;;;;;21.55;53.42;100635.89;107876;1288;23736;-80
2022/10/16 11:54:44;;;;;;;5.10;4.00;;;;;;;21.51;53.71;100638.86;107721;1289;23443;-82
2022/10/16 11:57:32;;;;;;;4.00;3.70;;;;;;;21.45;53.88;100640.36;107630;1289;22752;-81
2022/10/16 12:04:17;;;;;;;;;;;;;;;;;;;;;
2022/10/16 12:07:21;;;;;;;3.50;3.00;;;;;;;21.43;54.32;100642.20;107839;1286;21953;-81
2022/10/16 12:10:06;;;;;;;;;;;;;;;;;;;;;
2022/10/16 12:12:50;;;;;;;;;;;;;;;;;;;;;
2022/10/16 12:15:49;;;;;;;5.60;5.10;;;;;;;21.56;54.10;100650.99;107980;1289;23692;-81
2022/10/16 12:18:35;;;;;;;7.40;5.30;;;;;;;21.50;54.02;100647.25;107993;1289;23671;-81
2022/10/16 12:21:31;;;;;;;9.40;8.50;;;;;;;21.46;54.12;100643.45;108179;1280;23054;-81
2022/10/16 12:24:51;;;;;;;19.30;17.40;;;;;;;21.40;54.18;100638.77;108626;1274;22738;-81
2022/10/16 12:27:36;;;;;;;7.20;5.30;;;;;;;21.33;54.30;100635.63;108893;1276;22836;-81
2022/10/16 12:30:25;;;;;;;5.60;4.70;;;;;;;21.25;54.31;100632.18;108822;1276;21973;-81
2022/10/16 12:33:36;;;;;;;6.10;4.70;;;;;;;21.21;54.80;100629.66;108822;1276;22428;-81
2022/10/16 12:36:26;;;;;;;4.30;3.80;;;;;;;21.23;54.97;100635.17;108806;1274;21977;-81
2022/10/16 12:39:28;;;;;;;6.40;4.60;;;;;;;21.20;54.70;100647.05;108781;1276;22166;-81
2022/10/16 12:42:33;;;;;;;;;;;;;;;;;;;;;
2022/10/16 12:45:35;;;;;;;5.40;4.90;;;;;;;21.22;54.90;100651.67;108825;1276;23054;-82
2022/10/16 12:48:44;;;;;;;5.90;4.80;;;;;;;21.15;54.87;100654.52;108317;1282;21970;-81
2022/10/16 12:51:43;;;;;;;4.40;4.00;;;;;;;21.12;55.08;100654.63;108382;1282;21949;-80
2022/10/16 12:54:31;;;;;;;5.80;5.20;;;;;;;21.13;55.10;100654.32;108404;1267;23860;-81
2022/10/16 12:57:56;;;;;;;6.10;4.70;;;;;;;21.10;55.06;100658.08;108413;1282;23081;-80
2022/10/16 13:01:30;;;;;;;5.50;5.00;;;;;;;21.03;55.36;100665.69;108328;1282;23813;-81
2022/10/16 13:04:39;;;;;;;6.40;5.80;;;;;;;21.00;55.68;100673.70;108530;1282;22707;-81
2022/10/16 13:07:42;;;;;;;15.70;14.30;;;;;;;21.03;55.85;100681.48;108288;1285;22268;-81
2022/10/16 13:11:15;;;;;;;6.10;5.40;;;;;;;21.07;56.02;100685.24;107906;1289;21958;-82
2022/10/16 13:14:41;;;;;;;6.30;5.60;;;;;;;21.07;55.90;100688.71;107924;1289;21967;-80
2022/10/16 13:17:38;;;;;;;7.10;5.60;;;;;;;21.10;55.94;100698.59;107530;1291;21955;-81
2022/10/16 13:20:58;;;;;;;5.50;4.90;;;;;;;21.16;56.21;100707.89;107745;1291;21968;-81
2022/10/16 13:24:16;;;;;;;;;;;;;;;;;;;;;
2022/10/16 13:27:15;;;;;;;5.10;4.00;;;;;;;21.28;56.01;100713.48;108450;1283;21935;-81
2022/10/16 13:30:20;;;;;;;8.10;3.80;;;;;;;21.29;55.74;100712.36;108641;1281;21991;-81
2022/10/16 13:33:19;;;;;;;5.60;4.30;;;;;;;21.30;55.59;100713.01;108439;1282;21990;-82
2022/10/16 13:36:04;;;;;;;6.80;5.60;;;;;;;21.30;55.52;100708.79;108421;1279;23119;-81
2022/10/16 13:39:21;;;;;;;7.30;6.40;;;;;;;21.29;55.43;100704.06;108398;1283;23593;-80
2022/10/16 13:42:30;;;;;;;6.70;4.00;;;;;;;21.30;55.48;100700.41;108637;1280;22790;-81
2022/10/16 13:45:22;;;;;;;4.40;4.00;;;;;;;21.33;55.40;100703.25;108365;1283;23585;-80
2022/10/16 13:48:12;;;;;;;5.30;4.80;;;;;;;21.35;55.37;100705.01;108752;1274;21967;-81
2022/10/16 13:51:00;;;;;;;6.90;6.30;;;;;;;21.37;55.39;100710.73;108827;1275;21943;-80
2022/10/16 13:53:38;;;;;;;5.70;5.20;;;;;;;21.38;55.33;100718.22;108922;1271;23515;-81
2022/10/16 13:56:26;;;;;;;4.80;4.20;;;;;;;21.39;55.30;100723.09;108846;1274;22202;-80
2022/10/16 13:59:48;;;;;;;7.90;5.00;;;;;;;21.39;55.46;100723.81;108826;1272;21977;-80
2022/10/16 14:03:02;;;;;;;5.50;4.00;;;;;;;21.35;55.61;100730.15;108954;1273;21934;-81
2022/10/16 14:05:48;;;;;;;6.20;4.80;;;;;;;21.34;55.65;100729.86;109027;1273;21933;-81
2022/10/16 14:08:35;;;;;;;6.10;4.70;;;;;;;21.35;55.79;100728.53;108846;1274;21969;-82
2022/10/16 14:11:23;;;;;;;4.80;4.20;;;;;;;21.40;55.70;100725.52;108376;1281;21957;-82
2022/10/16 14:14:06;;;;;;;3.80;3.30;;;;;;;21.38;55.78;100722.48;108404;1282;23641;-80
2022/10/16 14:16:44;;;;;;;6.10;3.60;;;;;;;21.39;55.82;100727.54;108397;1282;22059;-80
2022/10/16 14:19:29;;;;;;;8.00;4.80;;;;;;;21.36;55.84;100733.06;108324;1282;21940;-79
2022/10/16 14:22:01;;;;;;;5.10;4.40;;;;;;;21.34;55.93;100734.70;108353;1282;23154;-81
2022/10/16 14:24:35;;;;;;;6.20;3.90;;;;;;;21.33;55.87;100737.73;108378;1281;21952;-80
2022/10/16 14:27:32;;;;;;;5.20;4.10;;;;;;;21.29;55.88;100738.95;108448;1281;21958;-80
2022/10/16 14:30:20;;;;;;;7.10;5.30;;;;;;;21.27;56.10;100743.87;108756;1276;23836;-81
2022/10/16 14:33:06;;;;;;;12.50;10.20;;;;;;;21.26;55.99;100743.27;108531;1278;21934;-81
2022/10/16 14:35:51;;;;;;;14.90;13.30;;;;;;;21.22;56.15;100746.86;108804;1277;21940;-81
2022/10/16 14:38:41;;;;;;;13.70;12.40;;;;;;;21.22;56.27;100749.05;108522;1277;21931;-81
2022/10/16 14:41:23;;;;;;;7.10;6.40;;;;;;;21.22;56.35;100753.10;108639;1278;22010;-81
2022/10/16 14:44:14;;;;;;;5.70;4.70;;;;;;;21.20;56.40;100752.16;108683;1277;22984;-80
2022/10/16 14:46:49;;;;;;;8.40;4.10;;;;;;;21.21;56.53;100748.04;108755;1278;22241;-81